Time;durP1;ratioP1;P1;durP2;ratioP2;P2;SDS_P1;SDS_P2;PMS_P1;PMS_P2;Temp;Humidity;BMP_temperature;BMP_pressure;BME280_temperature;BME280_humidity;BME280_pressure;Samples;Min_cycle;Max_cycle;Signal;HPM_P1;HPM_P2
2022/04/08 00:01:41;;;;;;;;;;;;;;;;;;5094280;28;19908;-57
2022/04/08 00:04:08;;;;;;;;;;;;;;;;;;5093604;28;19924;-48
2022/04/08 00:06:34;;;;;;;;;;;;;;;;;;5093878;28;19908;-46
2022/04/08 00:09:00;;;;;;;;;;;;;;;;;;5092245;28;19930;-55
2022/04/08 00:11:27;;;;;;;;;;;;;;;;;;5093403;28;20712;-56
2022/04/08 00:13:53;;;;;;;;;;;;;;;;;;5093670;28;20359;-51
2022/04/08 00:16:20;;;;;;;;;;;;;;;;;;5093002;28;19908;-52
2022/04/08 00:18:46;;;;;;;;;;;;;;;;;;5093224;28;20371;-49
2022/04/08 00:21:13;;;;;;;;;;;;;;;;;;5093439;28;20361;-50
2022/04/08 00:23:40;;;;;;;;;;;;;;;;;;5093789;28;19908;-45
2022/04/08 00:26:06;;;;;;;;;;;;;;;;;;5093984;28;19928;-53
2022/04/08 00:28:33;;;;;;;;;;;;;;;;;;5093847;28;19919;-50
2022/04/08 00:31:00;;;;;;;;;;;;;;;;;;5093191;28;19912;-51
2022/04/08 00:33:26;;;;;;;;;;;;;;;;;;5093305;28;19916;-56
2022/04/08 00:35:53;;;;;;;;;;;;;;;;;;5093307;28;19952;-58
2022/04/08 00:38:19;;;;;;;;;;;;;;;;;;5093934;28;19908;-57
2022/04/08 00:40:46;;;;;;;;;;;;;;;;;;5093664;28;19995;-50
2022/04/08 00:43:12;;;;;;;;;;;;;;;;;;5093608;28;19908;-54
2022/04/08 00:45:39;;;;;;;;;;;;;;;;;;5093413;28;19915;-48
2022/04/08 00:48:07;;;;;;;;;;;;;;;;;;5092304;28;20240;-47
2022/04/08 00:50:34;;;;;;;;;;;;;;;;;;5093597;28;19916;-53
2022/04/08 00:53:01;;;;;;;;;;;;;;;;;;5093269;28;19923;-56
2022/04/08 00:55:27;;;;;;;;;;;;;;;;;;5093113;28;20385;-48
2022/04/08 00:57:54;;;;;;;;;;;;;;;;;;5093054;28;19911;-55
2022/04/08 01:00:22;;;;;;;;;;;;;;;;;;5092650;28;19956;-54
2022/04/08 01:02:49;;;;;;;;;;;;;;;;;;5092322;28;20015;-46
2022/04/08 01:05:15;;;;;;;;;;;;;;;;;;5090694;28;19992;-58
2022/04/08 01:07:42;;;;;;;;;;;;;;;;;;5100002;28;19907;-53
2022/04/08 01:10:08;;;;;;;;;;;;;;;;;;5112843;28;19908;-49
2022/04/08 01:12:34;;;;;;;;;;;;;;;;;;5113552;28;19916;-51
2022/04/08 01:15:01;;;;;;;;;;;;;;;;;;5112992;28;19953;-53
2022/04/08 01:17:27;;;;;;;;;;;;;;;;;;5112282;28;19916;-57
2022/04/08 01:19:54;;;;;;;;;;;;;;;;;;5112993;28;19924;-46
2022/04/08 01:22:20;;;;;;;;;;;;;;;;;;5113252;28;20354;-56
2022/04/08 01:24:47;;;;;;;;;;;;;;;;;;5113036;28;19915;-52
2022/04/08 01:27:13;;;;;;;;;;;;;;;;;;5112888;28;19953;-53
2022/04/08 01:29:40;;;;;;;;;;;;;;;;;;5113187;28;19907;-44
2022/04/08 01:32:07;;;;;;;;;;;;;;;;;;5112492;28;20241;-53
2022/04/08 01:34:33;;;;;;;;;;;;;;;;;;5112720;28;20010;-56
2022/04/08 01:37:00;;;;;;;;;;;;;;;;;;5112188;28;19911;-58
2022/04/08 01:39:26;;;;;;;;;;;;;;;;;;5112174;28;20014;-57
2022/04/08 01:41:53;;;;;;;;;;;;;;;;;;5112166;28;19904;-57
2022/04/08 01:44:19;;;;;;;;;;;;;;;;;;5112243;28;19908;-57
2022/04/08 01:46:47;;;;;;;;;;;;;;;;;;5112189;28;19933;-51
2022/04/08 01:49:13;;;;;;;;;;;;;;;;;;5110508;28;19907;-56
2022/04/08 01:51:40;;;;;;;;;;;;;;;;;;5112252;28;19919;-56
2022/04/08 01:54:06;;;;;;;;;;;;;;;;;;5112787;28;20025;-55
2022/04/08 01:56:33;;;;;;;;;;;;;;;;;;5112532;28;19915;-52
2022/04/08 01:58:59;;;;;;;;;;;;;;;;;;5112739;28;19907;-49
2022/04/08 02:01:25;;;;;;;;;;;;;;;;;;5111817;28;19939;-52
2022/04/08 02:03:52;;;;;;;;;;;;;;;;;;5112306;28;19912;-58
2022/04/08 02:06:18;;;;;;;;;;;;;;;;;;5112741;28;19984;-45
2022/04/08 02:08:45;;;;;;;;;;;;;;;;;;5112470;28;20285;-58
2022/04/08 02:11:11;;;;;;;;;;;;;;;;;;5112430;28;19914;-58
2022/04/08 02:13:38;;;;;;;;;;;;;;;;;;5112523;28;20024;-46
2022/04/08 02:16:04;;;;;;;;;;;;;;;;;;5108825;28;19919;-43
2022/04/08 02:18:31;;;;;;;;;;;;;;;;;;5112169;28;19927;-45
2022/04/08 02:20:57;;;;;;;;;;;;;;;;;;5115171;28;19911;-53
2022/04/08 02:23:24;;;;;;;;;;;;;;;;;;5115793;28;19908;-51
2022/04/08 02:25:50;;;;;;;;;;;;;;;;;;5116071;28;19908;-48
2022/04/08 02:28:17;;;;;;;;;;;;;;;;;;5116421;28;20364;-50
2022/04/08 02:30:43;;;;;;;;;;;;;;;;;;5116089;28;20273;-49
2022/04/08 02:33:09;;;;;;;;;;;;;;;;;;5115874;27;20311;-52
2022/04/08 02:35:36;;;;;;;;;;;;;;;;;;5115798;28;20278;-45
2022/04/08 02:38:02;;;;;;;;;;;;;;;;;;5115927;28;19908;-54
2022/04/08 02:40:29;;;;;;;;;;;;;;;;;;5114238;28;19907;-52
2022/04/08 02:42:55;;;;;;;;;;;;;;;;;;5115792;28;19976;-48
2022/04/08 02:45:22;;;;;;;;;;;;;;;;;;5115728;28;19914;-50
2022/04/08 02:47:48;;;;;;;;;;;;;;;;;;5115390;28;20322;-52
2022/04/08 02:50:15;;;;;;;;;;;;;;;;;;5115815;28;20267;-54
2022/04/08 02:52:41;;;;;;;;;;;;;;;;;;5116134;28;20294;-53
2022/04/08 02:55:08;;;;;;;;;;;;;;;;;;5115300;28;19911;-54
2022/04/08 02:57:34;;;;;;;;;;;;;;;;;;5115700;28;19908;-57
2022/04/08 03:00:01;;;;;;;;;;;;;;;;;;5115643;28;19942;-57
2022/04/08 03:02:27;;;;;;;;;;;;;;;;;;5115802;28;19972;-57
2022/04/08 03:04:54;;;;;;;;;;;;;;;;;;5113722;28;20285;-57
2022/04/08 03:07:20;;;;;;;;;;;;;;;;;;5114651;28;19912;-47
2022/04/08 03:09:47;;;;;;;;;;;;;;;;;;5114030;28;19907;-54
2022/04/08 03:12:13;;;;;;;;;;;;;;;;;;5115524;28;19920;-52
2022/04/08 03:14:40;;;;;;;;;;;;;;;;;;5115620;28;19907;-47
2022/04/08 03:17:06;;;;;;;;;;;;;;;;;;5115498;28;19947;-55
2022/04/08 03:19:32;;;;;;;;;;;;;;;;;;5115046;28;19946;-57
2022/04/08 03:21:59;;;;;;;;;;;;;;;;;;5115139;28;19915;-56
2022/04/08 03:24:26;;;;;;;;;;;;;;;;;;5114845;28;19930;-56
2022/04/08 03:26:52;;;;;;;;;;;;;;;;;;5114655;28;19914;-51
2022/04/08 03:29:19;;;;;;;;;;;;;;;;;;5113353;28;19908;-54
2022/04/08 03:31:45;;;;;;;;;;;;;;;;;;5113284;28;19919;-57
2022/04/08 03:34:11;;;;;;;;;;;;;;;;;;5114686;28;19964;-42
2022/04/08 03:36:38;;;;;;;;;;;;;;;;;;5114513;28;19911;-45
2022/04/08 03:39:04;;;;;;;;;;;;;;;;;;5112954;28;19956;-42
2022/04/08 03:41:31;;;;;;;;;;;;;;;;;;5114440;28;20338;-50
2022/04/08 03:43:57;;;;;;;;;;;;;;;;;;5113678;28;19912;-56
2022/04/08 03:46:24;;;;;;;;;;;;;;;;;;5114049;28;19924;-53
2022/04/08 03:48:50;;;;;;;;;;;;;;;;;;5114400;28;19907;-50
2022/04/08 03:51:17;;;;;;;;;;;;;;;;;;5114507;28;20329;-54
2022/04/08 03:53:43;;;;;;;;;;;;;;;;;;5114446;28;19923;-54
2022/04/08 03:56:10;;;;;;;;;;;;;;;;;;5114709;28;20299;-55
2022/04/08 03:58:36;;;;;;;;;;;;;;;;;;5114473;28;20273;-58
2022/04/08 04:01:03;;;;;;;;;;;;;;;;;;5114637;28;20285;-60
2022/04/08 04:03:29;;;;;;;;;;;;;;;;;;5114215;28;19957;-58
2022/04/08 04:05:56;;;;;;;;;;;;;;;;;;5114312;28;19923;-54
2022/04/08 04:08:22;;;;;;;;;;;;;;;;;;5114122;28;20293;-59
2022/04/08 04:10:49;;;;;;;;;;;;;;;;;;5114150;28;19911;-56
2022/04/08 04:13:15;;;;;;;;;;;;;;;;;;5114327;28;19919;-56
2022/04/08 04:15:42;;;;;;;;;;;;;;;;;;5113945;28;20042;-58
2022/04/08 04:18:09;;;;;;;;;;;;;;;;;;5114150;28;19919;-59
2022/04/08 04:20:36;;;;;;;;;;;;;;;;;;5113166;28;19915;-57
2022/04/08 04:23:02;;;;;;;;;;;;;;;;;;5113598;28;19908;-50
2022/04/08 04:25:29;;;;;;;;;;;;;;;;;;5113667;28;20390;-55
2022/04/08 04:27:55;;;;;;;;;;;;;;;;;;5113562;28;19930;-54
2022/04/08 04:30:24;;;;;;;;;;;;;;;;;;5113378;28;20007;-58
2022/04/08 04:32:52;;;;;;;;;;;;;;;;;;5113748;28;19927;-55
2022/04/08 04:35:19;;;;;;;;;;;;;;;;;;5112997;28;19953;-55
2022/04/08 04:37:45;;;;;;;;;;;;;;;;;;5113820;28;19961;-54
2022/04/08 04:40:12;;;;;;;;;;;;;;;;;;5113950;28;19915;-56
2022/04/08 04:42:38;;;;;;;;;;;;;;;;;;5113217;28;19997;-54
2022/04/08 04:45:05;;;;;;;;;;;;;;;;;;5113274;28;19915;-54
2022/04/08 04:47:31;;;;;;;;;;;;;;;;;;5112816;28;20323;-51
2022/04/08 04:49:58;;;;;;;;;;;;;;;;;;5112796;28;19943;-52
2022/04/08 04:52:24;;;;;;;;;;;;;;;;;;5113126;28;19964;-51
2022/04/08 04:54:51;;;;;;;;;;;;;;;;;;5113071;28;19947;-56
2022/04/08 04:57:18;;;;;;;;;;;;;;;;;;5113021;28;19919;-51
2022/04/08 04:59:44;;;;;;;;;;;;;;;;;;5113182;28;19915;-58
2022/04/08 05:02:10;;;;;;;;;;;;;;;;;;5113158;28;19914;-52
2022/04/08 05:04:37;;;;;;;;;;;;;;;;;;5112762;28;19920;-55
2022/04/08 05:07:03;;;;;;;;;;;;;;;;;;5113134;28;19958;-50
2022/04/08 05:09:30;;;;;;;;;;;;;;;;;;5112563;28;20015;-48
2022/04/08 05:11:56;;;;;;;;;;;;;;;;;;5112703;28;20380;-55
2022/04/08 05:14:24;;;;;;;;;;;;;;;;;;5112979;28;19947;-52
2022/04/08 05:16:51;;;;;;;;;;;;;;;;;;5113452;28;19914;-57
2022/04/08 05:19:17;;;;;;;;;;;;;;;;;;5113037;28;20350;-56
2022/04/08 05:21:44;;;;;;;;;;;;;;;;;;5113698;28;19908;-50
2022/04/08 05:24:10;;;;;;;;;;;;;;;;;;5112745;28;19908;-54
2022/04/08 05:26:36;;;;;;;;;;;;;;;;;;5113018;28;19984;-52
2022/04/08 05:29:03;;;;;;;;;;;;;;;;;;5112619;28;19912;-54
2022/04/08 05:31:29;;;;;;;;;;;;;;;;;;5112383;28;20333;-57
2022/04/08 05:33:56;;;;;;;;;;;;;;;;;;5112806;28;19908;-55
2022/04/08 05:36:22;;;;;;;;;;;;;;;;;;5112764;28;19908;-47
2022/04/08 05:38:49;;;;;;;;;;;;;;;;;;5111860;28;19908;-55
2022/04/08 05:41:15;;;;;;;;;;;;;;;;;;5112360;28;19908;-52
2022/04/08 05:43:44;;;;;;;;;;;;;;;;;;5111291;28;20002;-58
2022/04/08 05:46:10;;;;;;;;;;;;;;;;;;5112255;28;20273;-49
2022/04/08 05:48:37;;;;;;;;;;;;;;;;;;5112418;28;19908;-57
2022/04/08 05:51:03;;;;;;;;;;;;;;;;;;5112921;28;19908;-50
2022/04/08 05:53:30;;;;;;;;;;;;;;;;;;5112827;28;19924;-51
2022/04/08 05:55:56;;;;;;;;;;;;;;;;;;5116844;28;19908;-56
2022/04/08 05:58:23;;;;;;;;;;;;;;;;;;5116936;28;20365;-56
2022/04/08 06:00:49;;;;;;;;;;;;;;;;;;5116451;28;20270;-54
2022/04/08 06:03:16;;;;;;;;;;;;;;;;;;5116872;28;19949;-58
2022/04/08 06:05:42;;;;;;;;;;;;;;;;;;5116570;28;19920;-53
2022/04/08 06:08:08;;;;;;;;;;;;;;;;;;5116546;28;19994;-52
2022/04/08 06:10:36;;;;;;;;;;;;;;;;;;5116452;28;19915;-53
2022/04/08 06:13:02;;;;;;;;;;;;;;;;;;5116650;28;19916;-57
2022/04/08 06:15:29;;;;;;;;;;;;;;;;;;5116461;28;19907;-53
2022/04/08 06:17:55;;;;;;;;;;;;;;;;;;5116116;28;20412;-54
2022/04/08 06:20:21;;;;;;;;;;;;;;;;;;5116329;28;20269;-55
2022/04/08 06:22:48;;;;;;;;;;;;;;;;;;5116120;28;19934;-50
2022/04/08 06:25:15;;;;;;;;;;;;;;;;;;5115935;28;19935;-57
2022/04/08 06:27:44;;;;;;;;;;;;;;;;;;5115935;28;19953;-53
2022/04/08 06:30:11;;;;;;;;;;;;;;;;;;5116199;27;20421;-56
2022/04/08 06:32:37;;;;;;;;;;;;;;;;;;5115993;28;20359;-48
2022/04/08 06:35:04;;;;;;;;;;;;;;;;;;5115895;28;19998;-53
2022/04/08 06:37:30;;;;;;;;;;;;;;;;;;5116114;28;19908;-54
2022/04/08 06:39:57;;;;;;;;;;;;;;;;;;5116014;28;20324;-54
2022/04/08 06:42:23;;;;;;;;;;;;;;;;;;5116154;28;19930;-47
2022/04/08 06:44:50;;;;;;;;;;;;;;;;;;5115971;28;19908;-48
2022/04/08 06:47:16;;;;;;;;;;;;;;;;;;5113720;28;19961;-50
2022/04/08 06:49:46;;;;;;;;;;;;;;;;;;5115316;28;19908;-49
2022/04/08 06:52:13;;;;;;;;;;;;;;;;;;5115506;28;19937;-54
2022/04/08 06:54:39;;;;;;;;;;;;;;;;;;5115822;28;19915;-55
2022/04/08 06:57:06;;;;;;;;;;;;;;;;;;5115961;28;20260;-53
2022/04/08 06:59:32;;;;;;;;;;;;;;;;;;5115061;28;19953;-50
2022/04/08 07:01:59;;;;;;;;;;;;;;;;;;5114355;28;20328;-49
2022/04/08 07:04:26;;;;;;;;;;;;;;;;;;5115494;28;19995;-46
2022/04/08 07:06:52;;;;;;;;;;;;;;;;;;5115510;28;20282;-53
2022/04/08 07:09:19;;;;;;;;;;;;;;;;;;5115392;28;19911;-54
2022/04/08 07:11:47;;;;;;;;;;;;;;;;;;5115797;28;20305;-51
2022/04/08 07:14:13;;;;;;;;;;;;;;;;;;5115246;28;20329;-49
2022/04/08 07:16:41;;;;;;;;;;;;;;;;;;5115600;28;19904;-50
2022/04/08 07:19:10;;;;;;;;;;;;;;;;;;5114342;28;19914;-42
2022/04/08 07:21:36;;;;;;;;;;;;;;;;;;5114943;28;19923;-50
2022/04/08 07:24:03;;;;;;;;;;;;;;;;;;5115386;28;19933;-55
2022/04/08 07:26:29;;;;;;;;;;;;;;;;;;5115794;27;19904;-54
2022/04/08 07:28:56;;;;;;;;;;;;;;;;;;5115340;28;19981;-53
2022/04/08 07:31:22;;;;;;;;;;;;;;;;;;5114490;28;19904;-49
2022/04/08 07:33:49;;;;;;;;;;;;;;;;;;5114851;28;19923;-56
2022/04/08 07:36:15;;;;;;;;;;;;;;;;;;5115024;28;19912;-47
2022/04/08 07:38:41;;;;;;;;;;;;;;;;;;5113685;28;19915;-55
2022/04/08 07:41:08;;;;;;;;;;;;;;;;;;5114802;28;19995;-55
2022/04/08 07:43:34;;;;;;;;;;;;;;;;;;5115164;28;19908;-46
2022/04/08 07:46:01;;;;;;;;;;;;;;;;;;5114244;28;20051;-54
2022/04/08 07:48:27;;;;;;;;;;;;;;;;;;5115021;28;20289;-47
2022/04/08 07:50:54;;;;;;;;;;;;;;;;;;5114246;28;19911;-52
2022/04/08 07:53:20;;;;;;;;;;;;;;;;;;5113982;28;19916;-59
2022/04/08 07:55:47;;;;;;;;;;;;;;;;;;5114645;28;19949;-58
2022/04/08 07:58:13;;;;;;;;;;;;;;;;;;5114846;28;19904;-56
2022/04/08 08:00:40;;;;;;;;;;;;;;;;;;5113885;28;19908;-55
2022/04/08 08:03:06;;;;;;;;;;;;;;;;;;5113967;28;20465;-57
2022/04/08 08:05:33;;;;;;;;;;;;;;;;;;5114287;28;20034;-49
2022/04/08 08:08:00;;;;;;;;;;;;;;;;;;5113872;28;19904;-53
2022/04/08 08:10:26;;;;;;;;;;;;;;;;;;5113946;28;19994;-56
2022/04/08 08:12:53;;;;;;;;;;;;;;;;;;5114150;28;20009;-48
2022/04/08 08:15:19;;;;;;;;;;;;;;;;;;5113879;28;19946;-56
2022/04/08 08:17:46;;;;;;;;;;;;;;;;;;5113539;28;19908;-53
2022/04/08 08:20:13;;;;;;;;;;;;;;;;;;5114204;28;19908;-50
2022/04/08 08:22:39;;;;;;;;;;;;;;;;;;5114026;28;19911;-59
2022/04/08 08:25:09;;;;;;;;;;;;;;;;;;5114235;28;19908;-52
2022/04/08 08:27:35;;;;;;;;;;;;;;;;;;5113856;28;19926;-45
2022/04/08 08:30:02;;;;;;;;;;;;;;;;;;5114258;28;19933;-54
2022/04/08 08:32:28;;;;;;;;;;;;;;;;;;5114391;28;19927;-51
2022/04/08 08:34:55;;;;;;;;;;;;;;;;;;5113615;28;19992;-55
2022/04/08 08:37:21;;;;;;;;;;;;;;;;;;5113330;28;20280;-54
2022/04/08 08:39:48;;;;;;;;;;;;;;;;;;5113989;28;19911;-56
2022/04/08 08:42:14;;;;;;;;;;;;;;;;;;5114031;28;19961;-53
2022/04/08 08:44:41;;;;;;;;;;;;;;;;;;5113737;28;19915;-58
2022/04/08 08:47:07;;;;;;;;;;;;;;;;;;5113357;28;19993;-53
2022/04/08 08:49:33;;;;;;;;;;;;;;;;;;5113663;28;20361;-57
2022/04/08 08:52:01;;;;;;;;;;;;;;;;;;5113500;28;19922;-56
2022/04/08 08:54:27;;;;;;;;;;;;;;;;;;5113332;28;19911;-58
2022/04/08 08:56:54;;;;;;;;;;;;;;;;;;5114141;28;19908;-47
2022/04/08 08:59:20;;;;;;;;;;;;;;;;;;5113461;28;19908;-56
2022/04/08 09:01:47;;;;;;;;;;;;;;;;;;5113985;28;19908;-54
2022/04/08 09:04:13;;;;;;;;;;;;;;;;;;5113524;28;19945;-54
2022/04/08 09:06:40;;;;;;;;;;;;;;;;;;5113850;28;19912;-53
2022/04/08 09:09:07;;;;;;;;;;;;;;;;;;5113216;28;19915;-51
2022/04/08 09:11:33;;;;;;;;;;;;;;;;;;5113413;28;20006;-57
2022/04/08 09:14:00;;;;;;;;;;;;;;;;;;5113066;28;19912;-54
2022/04/08 09:16:30;;;;;;;;;;;;;;;;;;5113192;28;19908;-56
2022/04/08 09:18:56;;;;;;;;;;;;;;;;;;5111813;28;19912;-54
2022/04/08 09:21:23;;;;;;;;;;;;;;;;;;5112719;28;19940;-55
2022/04/08 09:23:49;;;;;;;;;;;;;;;;;;5113287;28;19907;-52
2022/04/08 09:26:15;;;;;;;;;;;;;;;;;;5113236;28;19915;-51
2022/04/08 09:28:42;;;;;;;;;;;;;;;;;;5112530;28;19908;-54
2022/04/08 09:31:08;;;;;;;;;;;;;;;;;;5111484;28;19935;-57
2022/04/08 09:33:36;;;;;;;;;;;;;;;;;;5112494;28;20230;-50
2022/04/08 09:36:02;;;;;;;;;;;;;;;;;;5112955;28;19915;-47
2022/04/08 09:38:30;;;;;;;;;;;;;;;;;;5113357;28;19950;-53
2022/04/08 09:40:57;;;;;;;;;;;;;;;;;;5113572;28;20400;-56
2022/04/08 09:43:23;;;;;;;;;;;;;;;;;;5112643;28;20286;-55
2022/04/08 09:45:50;;;;;;;;;;;;;;;;;;5113296;28;19953;-55
2022/04/08 09:48:16;;;;;;;;;;;;;;;;;;5113375;28;19915;-53
2022/04/08 09:50:43;;;;;;;;;;;;;;;;;;5112773;28;19908;-55
2022/04/08 09:53:12;;;;;;;;;;;;;;;;;;5112621;28;19916;-57
2022/04/08 09:55:39;;;;;;;;;;;;;;;;;;5113104;28;20386;-52
2022/04/08 09:58:05;;;;;;;;;;;;;;;;;;5112878;28;19988;-52
2022/04/08 10:00:32;;;;;;;;;;;;;;;;;;5112542;28;19907;-51
2022/04/08 10:03:01;;;;;;;;;;;;;;;;;;5112208;28;20328;-50
2022/04/08 10:05:27;;;;;;;;;;;;;;;;;;5112313;28;19950;-50
2022/04/08 10:07:54;;;;;;;;;;;;;;;;;;5112762;28;19952;-50
2022/04/08 10:10:21;;;;;;;;;;;;;;;;;;5112431;28;20067;-50
2022/04/08 10:12:48;;;;;;;;;;;;;;;;;;5112176;28;19942;-58
2022/04/08 10:15:14;;;;;;;;;;;;;;;;;;5111267;28;19945;-51
2022/04/08 10:17:41;;;;;;;;;;;;;;;;;;5112846;28;19904;-50
2022/04/08 10:20:07;;;;;;;;;;;;;;;;;;5112597;28;19908;-44
2022/04/08 10:22:34;;;;;;;;;;;;;;;;;;5112206;28;19915;-43
2022/04/08 10:25:01;;;;;;;;;;;;;;;;;;5112502;28;20427;-51
2022/04/08 10:27:27;;;;;;;;;;;;;;;;;;5112056;28;19925;-51
2022/04/08 10:29:54;;;;;;;;;;;;;;;;;;5112682;28;19919;-51
2022/04/08 10:32:21;;;;;;;;;;;;;;;;;;5112417;28;20273;-53
2022/04/08 10:34:47;;;;;;;;;;;;;;;;;;5112658;28;19911;-49
2022/04/08 10:37:15;;;;;;;;;;;;;;;;;;5112660;28;19908;-52
2022/04/08 10:39:42;;;;;;;;;;;;;;;;;;5113745;28;19947;-45
2022/04/08 10:42:11;;;;;;;;;;;;;;;;;;5116314;28;20312;-46
2022/04/08 10:44:37;;;;;;;;;;;;;;;;;;5116539;28;20354;-50
2022/04/08 10:47:04;;;;;;;;;;;;;;;;;;5116530;28;19908;-49
2022/04/08 10:49:30;;;;;;;;;;;;;;;;;;5115942;28;19931;-54
2022/04/08 10:51:56;;;;;;;;;;;;;;;;;;5116585;28;20006;-56
2022/04/08 10:54:23;;;;;;;;;;;;;;;;;;5116450;28;20365;-53
2022/04/08 10:56:49;;;;;;;;;;;;;;;;;;5116138;28;19960;-52
2022/04/08 10:59:16;;;;;;;;;;;;;;;;;;5115871;28;19915;-50
2022/04/08 11:01:42;;;;;;;;;;;;;;;;;;5116310;28;19914;-54
2022/04/08 11:04:09;;;;;;;;;;;;;;;;;;5115961;28;19916;-40
2022/04/08 11:06:36;;;;;;;;;;;;;;;;;;5115641;28;19996;-41
2022/04/08 11:09:03;;;;;;;;;;;;;;;;;;5115802;28;19908;-56
2022/04/08 11:11:29;;;;;;;;;;;;;;;;;;5115964;28;19994;-56
2022/04/08 11:13:56;;;;;;;;;;;;;;;;;;5115999;28;20362;-49
2022/04/08 11:16:23;;;;;;;;;;;;;;;;;;5116055;28;19998;-47
2022/04/08 11:18:49;;;;;;;;;;;;;;;;;;5116257;28;20385;-51
2022/04/08 11:21:16;;;;;;;;;;;;;;;;;;5115600;28;20401;-54
2022/04/08 11:23:42;;;;;;;;;;;;;;;;;;5115925;28;19991;-54
2022/04/08 11:26:09;;;;;;;;;;;;;;;;;;5115661;28;19915;-57
2022/04/08 11:28:35;;;;;;;;;;;;;;;;;;5115616;28;19916;-55
2022/04/08 11:31:02;;;;;;;;;;;;;;;;;;5115716;28;19908;-50
2022/04/08 11:33:28;;;;;;;;;;;;;;;;;;5115472;28;19927;-53
2022/04/08 11:35:55;;;;;;;;;;;;;;;;;;5115671;28;19908;-54
2022/04/08 11:38:21;;;;;;;;;;;;;;;;;;5115620;28;19908;-50
2022/04/08 11:40:48;;;;;;;;;;;;;;;;;;5115203;28;19912;-52
2022/04/08 11:43:16;;;;;;;;;;;;;;;;;;5114455;28;19933;-54
2022/04/08 11:45:42;;;;;;;;;;;;;;;;;;5115216;28;20010;-52
2022/04/08 11:48:09;;;;;;;;;;;;;;;;;;5115388;28;19907;-55
2022/04/08 11:50:37;;;;;;;;;;;;;;;;;;5114981;28;19919;-55
2022/04/08 11:53:03;;;;;;;;;;;;;;;;;;5114433;28;20271;-55
2022/04/08 11:55:30;;;;;;;;;;;;;;;;;;5114638;28;19993;-51
2022/04/08 11:57:56;;;;;;;;;;;;;;;;;;5115112;28;19904;-46
2022/04/08 12:00:23;;;;;;;;;;;;;;;;;;5114804;27;19907;-51
2022/04/08 12:02:49;;;;;;;;;;;;;;;;;;5115067;28;20245;-53
2022/04/08 12:05:16;;;;;;;;;;;;;;;;;;5115726;28;19923;-59
2022/04/08 12:07:42;;;;;;;;;;;;;;;;;;5114949;28;19998;-50
2022/04/08 12:10:08;;;;;;;;;;;;;;;;;;5115000;27;19908;-55
2022/04/08 12:12:35;;;;;;;;;;;;;;;;;;5114991;28;19915;-51
2022/04/08 12:15:01;;;;;;;;;;;;;;;;;;5115003;28;19915;-51
2022/04/08 12:17:31;;;;;;;;;;;;;;;;;;5113991;28;21313;-46
2022/04/08 12:19:58;;;;;;;;;;;;;;;;;;5114627;28;20273;-44
2022/04/08 12:22:26;;;;;;;;;;;;;;;;;;5114773;28;19907;-52
2022/04/08 12:24:53;;;;;;;;;;;;;;;;;;5114525;28;19903;-53
2022/04/08 12:27:23;;;;;;;;;;;;;;;;;;5114474;28;19912;-52
2022/04/08 12:29:50;;;;;;;;;;;;;;;;;;5114833;28;19903;-44
2022/04/08 12:32:16;;;;;;;;;;;;;;;;;;5112845;28;19911;-51
2022/04/08 12:34:43;;;;;;;;;;;;;;;;;;5114609;28;19907;-43
2022/04/08 12:37:09;;;;;;;;;;;;;;;;;;5114267;28;20381;-54
2022/04/08 12:39:36;;;;;;;;;;;;;;;;;;5114809;28;19934;-47
2022/04/08 12:42:02;;;;;;;;;;;;;;;;;;5112698;28;19908;-46
2022/04/08 12:44:29;;;;;;;;;;;;;;;;;;5114436;28;19999;-54
2022/04/08 12:46:56;;;;;;;;;;;;;;;;;;5114320;28;19908;-57
2022/04/08 12:49:23;;;;;;;;;;;;;;;;;;5114243;28;19908;-45
2022/04/08 12:51:50;;;;;;;;;;;;;;;;;;5114116;28;19928;-46
2022/04/08 12:54:16;;;;;;;;;;;;;;;;;;5114551;28;20011;-48
2022/04/08 12:56:43;;;;;;;;;;;;;;;;;;5114279;28;19912;-57
2022/04/08 12:59:09;;;;;;;;;;;;;;;;;;5114144;28;19908;-45
2022/04/08 13:01:36;;;;;;;;;;;;;;;;;;5113892;28;20384;-49
2022/04/08 13:04:02;;;;;;;;;;;;;;;;;;5113675;28;20014;-47
2022/04/08 13:06:30;;;;;;;;;;;;;;;;;;5114271;28;20327;-50
2022/04/08 13:08:56;;;;;;;;;;;;;;;;;;5113816;28;20251;-45
2022/04/08 13:11:23;;;;;;;;;;;;;;;;;;5113818;28;19915;-53
2022/04/08 13:13:49;;;;;;;;;;;;;;;;;;5113696;28;19938;-44
2022/04/08 13:16:17;;;;;;;;;;;;;;;;;;5114047;28;19908;-41
2022/04/08 13:18:43;;;;;;;;;;;;;;;;;;5113918;28;19999;-40
2022/04/08 13:21:09;;;;;;;;;;;;;;;;;;5113642;28;19927;-42
2022/04/08 13:23:36;;;;;;;;;;;;;;;;;;5113815;28;19908;-49
2022/04/08 13:26:03;;;;;;;;;;;;;;;;;;5112324;28;19915;-54
2022/04/08 13:28:29;;;;;;;;;;;;;;;;;;5113214;28;19908;-50
2022/04/08 13:30:56;;;;;;;;;;;;;;;;;;5113626;28;19912;-47
2022/04/08 13:33:22;;;;;;;;;;;;;;;;;;5113278;28;19916;-44
2022/04/08 13:35:52;;;;;;;;;;;;;;;;;;5113872;28;19908;-44
2022/04/08 13:38:21;;;;;;;;;;;;;;;;;;5113554;28;19908;-39
2022/04/08 13:40:48;;;;;;;;;;;;;;;;;;5113358;28;19962;-48
2022/04/08 13:43:15;;;;;;;;;;;;;;;;;;5113352;28;19907;-52
2022/04/08 13:45:41;;;;;;;;;;;;;;;;;;5113496;28;20346;-57
2022/04/08 13:48:08;;;;;;;;;;;;;;;;;;5113561;28;20257;-50
2022/04/08 13:50:34;;;;;;;;;;;;;;;;;;5113429;28;20270;-57
2022/04/08 13:53:01;;;;;;;;;;;;;;;;;;5113318;28;20029;-54
2022/04/08 13:55:27;;;;;;;;;;;;;;;;;;5113266;28;19912;-48
2022/04/08 13:57:54;;;;;;;;;;;;;;;;;;5113217;28;19908;-53
2022/04/08 14:00:20;;;;;;;;;;;;;;;;;;5113444;28;20266;-52
2022/04/08 14:02:46;;;;;;;;;;;;;;;;;;5113577;28;20312;-57
2022/04/08 14:05:13;;;;;;;;;;;;;;;;;;5113033;28;20293;-49
2022/04/08 14:07:40;;;;;;;;;;;;;;;;;;5112997;28;19908;-59
2022/04/08 14:10:06;;;;;;;;;;;;;;;;;;5113079;28;19946;-57
2022/04/08 14:12:33;;;;;;;;;;;;;;;;;;5112730;28;19916;-51
2022/04/08 14:14:59;;;;;;;;;;;;;;;;;;5114710;28;20041;-52
2022/04/08 14:17:25;;;;;;;;;;;;;;;;;;5117098;28;20273;-56
2022/04/08 14:19:52;;;;;;;;;;;;;;;;;;5117275;28;19908;-57
2022/04/08 14:22:18;;;;;;;;;;;;;;;;;;5116807;28;19907;-54
2022/04/08 14:24:45;;;;;;;;;;;;;;;;;;5117104;28;19915;-56
2022/04/08 14:27:11;;;;;;;;;;;;;;;;;;5116633;28;19914;-54
2022/04/08 14:29:38;;;;;;;;;;;;;;;;;;5117270;27;20401;-56
2022/04/08 14:32:04;;;;;;;;;;;;;;;;;;5117265;28;19912;-56
2022/04/08 14:34:31;;;;;;;;;;;;;;;;;;5117227;28;19916;-50
2022/04/08 14:36:57;;;;;;;;;;;;;;;;;;5117075;28;19914;-55
2022/04/08 14:39:24;;;;;;;;;;;;;;;;;;5116880;28;19922;-58
2022/04/08 14:41:50;;;;;;;;;;;;;;;;;;5116785;28;19918;-56
2022/04/08 14:44:16;;;;;;;;;;;;;;;;;;5117121;28;19908;-51
2022/04/08 14:46:43;;;;;;;;;;;;;;;;;;5116391;28;20282;-50
2022/04/08 14:49:09;;;;;;;;;;;;;;;;;;5116554;28;20393;-56
2022/04/08 14:51:36;;;;;;;;;;;;;;;;;;5116622;28;19907;-55
2022/04/08 14:54:02;;;;;;;;;;;;;;;;;;5116418;28;19916;-48
2022/04/08 14:56:29;;;;;;;;;;;;;;;;;;5116793;28;19908;-49
2022/04/08 14:58:55;;;;;;;;;;;;;;;;;;5116594;28;19908;-55
2022/04/08 15:01:22;;;;;;;;;;;;;;;;;;5116419;28;19961;-56
2022/04/08 15:03:48;;;;;;;;;;;;;;;;;;5116400;28;19918;-54
2022/04/08 15:06:15;;;;;;;;;;;;;;;;;;5107591;28;19916;-50
2022/04/08 15:08:42;;;;;;;;;;;;;;;;;;5096159;28;19987;-54
2022/04/08 15:11:08;;;;;;;;;;;;;;;;;;5094429;28;20323;-59
2022/04/08 15:13:35;;;;;;;;;;;;;;;;;;5095887;28;19923;-56
2022/04/08 15:16:01;;;;;;;;;;;;;;;;;;5096023;28;20003;-56
2022/04/08 15:18:29;;;;;;;;;;;;;;;;;;5095908;28;19912;-55
2022/04/08 15:20:56;;;;;;;;;;;;;;;;;;5095808;28;19939;-58
2022/04/08 15:23:22;;;;;;;;;;;;;;;;;;5095684;28;19908;-55
2022/04/08 15:25:50;;;;;;;;;;;;;;;;;;5095522;28;19912;-50
2022/04/08 15:28:16;;;;;;;;;;;;;;;;;;5095566;28;19908;-47
2022/04/08 15:30:43;;;;;;;;;;;;;;;;;;5095468;28;19908;-61
2022/04/08 15:33:09;;;;;;;;;;;;;;;;;;5095274;28;20006;-53
2022/04/08 15:35:37;;;;;;;;;;;;;;;;;;5095576;28;20371;-50
2022/04/08 15:38:04;;;;;;;;;;;;;;;;;;5095494;28;20306;-56
2022/04/08 15:40:30;;;;;;;;;;;;;;;;;;5095261;28;19930;-56
2022/04/08 15:42:57;;;;;;;;;;;;;;;;;;5095392;28;19908;-58
2022/04/08 15:45:23;;;;;;;;;;;;;;;;;;5095044;28;19916;-43
2022/04/08 15:47:50;;;;;;;;;;;;;;;;;;5095530;28;19909;-42
2022/04/08 15:50:16;;;;;;;;;;;;;;;;;;5095196;28;19949;-48
2022/04/08 15:52:43;;;;;;;;;;;;;;;;;;5095295;28;19916;-43
2022/04/08 15:55:09;;;;;;;;;;;;;;;;;;5095137;28;19908;-46
2022/04/08 15:57:35;;;;;;;;;;;;;;;;;;5094980;28;20381;-41
2022/04/08 16:00:02;;;;;;;;;;;;;;;;;;5095322;28;19916;-42
2022/04/08 16:02:29;;;;;;;;;;;;;;;;;;5095202;28;19989;-49
2022/04/08 16:04:55;;;;;;;;;;;;;;;;;;5095014;28;19927;-46
2022/04/08 16:07:22;;;;;;;;;;;;;;;;;;5094874;28;19912;-53
2022/04/08 16:09:48;;;;;;;;;;;;;;;;;;5095217;28;19908;-55
2022/04/08 16:12:15;;;;;;;;;;;;;;;;;;5094615;28;19919;-43
2022/04/08 16:14:41;;;;;;;;;;;;;;;;;;5095018;28;19912;-53
2022/04/08 16:17:08;;;;;;;;;;;;;;;;;;5094577;28;19959;-49
2022/04/08 16:19:34;;;;;;;;;;;;;;;;;;5094591;28;19912;-45
2022/04/08 16:22:01;;;;;;;;;;;;;;;;;;5094859;28;19908;-40
2022/04/08 16:24:28;;;;;;;;;;;;;;;;;;5094884;28;19909;-44
2022/04/08 16:26:55;;;;;;;;;;;;;;;;;;5094538;28;20276;-46
2022/04/08 16:29:21;;;;;;;;;;;;;;;;;;5094366;28;20345;-51
2022/04/08 16:31:48;;;;;;;;;;;;;;;;;;5094313;28;20286;-48
2022/04/08 16:34:14;;;;;;;;;;;;;;;;;;5094550;28;19912;-47
2022/04/08 16:36:41;;;;;;;;;;;;;;;;;;5094346;28;19908;-49
2022/04/08 16:39:09;;;;;;;;;;;;;;;;;;5093654;28;19908;-44
2022/04/08 16:41:36;;;;;;;;;;;;;;;;;;5094310;28;19909;-51